createdAt,value
2023-05-10T00:00:30.232Z,14.81
2023-05-10T00:02:57.580Z,14.83
2023-05-10T00:05:24.689Z,14.84
2023-05-10T00:07:51.856Z,14.86
2023-05-10T00:10:19.333Z,14.86
2023-05-10T00:12:46.460Z,14.87
2023-05-10T00:15:13.766Z,14.86
2023-05-10T00:17:41.309Z,14.86
2023-05-10T00:20:09.151Z,14.84
2023-05-10T00:22:36.431Z,14.84
2023-05-10T00:25:03.831Z,14.82
2023-05-10T00:27:30.838Z,14.81
2023-05-10T00:29:58.030Z,14.80
2023-05-10T00:32:25.196Z,14.82
2023-05-10T00:34:52.495Z,14.82
2023-05-10T00:37:19.537Z,14.82
2023-05-10T00:39:46.600Z,14.82
2023-05-10T00:42:13.816Z,14.80
2023-05-10T00:44:40.865Z,14.79
2023-05-10T00:47:08.714Z,14.78
2023-05-10T00:49:37.339Z,14.80
2023-05-10T00:52:04.824Z,14.81
2023-05-10T00:54:32.072Z,14.81
2023-05-10T00:56:59.810Z,14.81
2023-05-10T00:59:27.593Z,14.79
2023-05-10T01:01:55.169Z,14.76
2023-05-10T01:04:26.663Z,14.77
2023-05-10T01:06:54.718Z,14.77
2023-05-10T01:09:23.337Z,14.76
2023-05-10T01:11:51.424Z,14.76
2023-05-10T01:14:20.861Z,14.77
2023-05-10T01:16:50.001Z,14.76
2023-05-10T01:19:29.287Z,14.77
2023-05-10T01:22:39.625Z,14.77
2023-05-10T01:25:31.375Z,14.77
2023-05-10T01:28:29.127Z,14.77
2023-05-10T01:31:31.283Z,14.75
2023-05-10T01:34:17.300Z,14.74
2023-05-10T01:36:59.807Z,14.75
2023-05-10T01:39:46.269Z,14.76
2023-05-10T01:42:28.410Z,14.76
2023-05-10T01:45:01.445Z,14.74
2023-05-10T01:47:41.485Z,14.73
2023-05-10T01:50:17.118Z,14.71
2023-05-10T01:52:51.053Z,14.63
2023-05-10T01:55:21.391Z,14.54
2023-05-10T01:57:53.630Z,14.48
2023-05-10T02:00:21.883Z,14.46
2023-05-10T02:02:50.818Z,14.44
2023-05-10T02:05:19.188Z,14.36
2023-05-10T02:07:47.373Z,14.31
2023-05-10T02:10:15.656Z,14.27
2023-05-10T02:12:47.077Z,14.27
2023-05-10T02:15:22.008Z,14.28
2023-05-10T02:17:50.105Z,14.28
2023-05-10T02:20:20.202Z,14.32
2023-05-10T02:22:50.473Z,14.35
2023-05-10T02:25:20.276Z,14.37
2023-05-10T02:27:49.203Z,14.39
2023-05-10T02:30:18.815Z,14.42
2023-05-10T02:32:46.523Z,14.42
2023-05-10T02:35:13.841Z,14.41
2023-05-10T02:37:42.149Z,14.41
2023-05-10T02:40:10.343Z,14.40
2023-05-10T02:42:39.859Z,14.36
2023-05-10T02:45:13.495Z,14.35
2023-05-10T02:47:40.907Z,14.34
2023-05-10T02:50:09.238Z,14.37
2023-05-10T02:52:55.425Z,14.32
2023-05-10T02:55:33.401Z,14.31
2023-05-10T02:58:02.908Z,14.28
2023-05-10T03:00:30.575Z,14.29
2023-05-10T03:02:57.802Z,14.28
2023-05-10T03:05:25.024Z,14.24
2023-05-10T03:07:53.252Z,14.26
2023-05-10T03:10:24.232Z,14.35
2023-05-10T03:13:36.296Z,14.39
2023-05-10T03:16:12.807Z,14.37
2023-05-10T03:18:55.954Z,14.37
2023-05-10T03:21:27.141Z,14.39
2023-05-10T03:24:08.698Z,14.39
2023-05-10T03:26:38.240Z,14.33
2023-05-10T03:29:07.275Z,14.36
2023-05-10T03:31:34.474Z,14.40
2023-05-10T03:34:02.285Z,14.41
2023-05-10T03:36:29.437Z,14.37
2023-05-10T03:38:56.478Z,14.36
2023-05-10T03:41:23.616Z,14.37
2023-05-10T03:43:50.630Z,14.37
2023-05-10T03:46:17.675Z,14.37
2023-05-10T03:48:44.866Z,14.36
2023-05-10T03:51:11.985Z,14.37
2023-05-10T03:53:38.997Z,14.38
2023-05-10T03:56:06.218Z,14.35
2023-05-10T03:58:33.471Z,14.35
2023-05-10T04:01:00.627Z,14.34
2023-05-10T04:03:27.796Z,14.35
2023-05-10T04:06:02.884Z,14.35
2023-05-10T04:08:30.262Z,14.39
2023-05-10T04:11:10.647Z,14.37
2023-05-10T04:13:38.225Z,14.32
2023-05-10T04:16:06.380Z,14.30
2023-05-10T04:18:33.731Z,14.30
2023-05-10T04:21:00.792Z,14.27
2023-05-10T04:23:28.811Z,14.28
2023-05-10T04:26:03.079Z,14.30
2023-05-10T04:28:30.174Z,14.31
2023-05-10T04:31:11.423Z,14.31
2023-05-10T04:33:38.552Z,14.34
2023-05-10T04:36:06.347Z,14.35
2023-05-10T04:38:33.414Z,14.40
2023-05-10T04:41:09.046Z,14.43
2023-05-10T04:43:37.264Z,14.46
2023-05-10T04:46:05.304Z,14.51
2023-05-10T04:48:32.452Z,14.52
2023-05-10T04:50:59.539Z,14.53
2023-05-10T04:53:26.790Z,14.54
2023-05-10T04:55:53.957Z,14.56
2023-05-10T04:58:21.001Z,14.56
2023-05-10T05:00:48.142Z,14.56
2023-05-10T05:03:15.392Z,14.58
2023-05-10T05:05:42.555Z,14.64
2023-05-10T05:08:09.932Z,14.73
2023-05-10T05:10:37.064Z,14.80
2023-05-10T05:13:04.152Z,14.90
2023-05-10T05:15:31.780Z,15.09
2023-05-10T05:17:59.029Z,15.25
2023-05-10T05:20:26.083Z,15.33
2023-05-10T05:22:53.256Z,15.28
2023-05-10T05:25:20.345Z,15.24
2023-05-10T05:27:47.535Z,15.25
2023-05-10T05:30:14.766Z,15.29
2023-05-10T05:32:41.870Z,15.36
2023-05-10T05:35:09.400Z,15.41
2023-05-10T05:37:36.632Z,15.43
2023-05-10T05:40:04.429Z,15.46
2023-05-10T05:42:32.648Z,15.53
2023-05-10T05:45:00.110Z,15.54
2023-05-10T05:47:27.203Z,15.55
2023-05-10T05:49:54.240Z,15.54
2023-05-10T05:52:22.257Z,15.44
2023-05-10T05:54:49.353Z,15.33
2023-05-10T05:57:16.409Z,15.25
2023-05-10T05:59:47.250Z,15.20
2023-05-10T06:02:14.474Z,15.19
2023-05-10T06:04:44.450Z,15.30
2023-05-10T06:07:12.136Z,15.45
2023-05-10T06:09:39.247Z,15.51
2023-05-10T06:12:06.524Z,15.60
2023-05-10T06:14:33.629Z,15.61
2023-05-10T06:17:01.170Z,15.58
2023-05-10T06:19:28.354Z,15.61
2023-05-10T06:21:55.687Z,15.64
2023-05-10T06:24:22.844Z,15.60
2023-05-10T06:26:51.240Z,15.61
2023-05-10T06:29:18.580Z,15.65
2023-05-10T06:31:45.654Z,15.72
2023-05-10T06:34:13.287Z,15.79
2023-05-10T06:36:40.422Z,15.86
2023-05-10T06:39:08.107Z,15.97
2023-05-10T06:41:35.244Z,16.11
2023-05-10T06:44:02.247Z,16.31
2023-05-10T06:46:29.288Z,16.47
2023-05-10T06:48:56.305Z,16.67
2023-05-10T06:51:23.344Z,16.74
2023-05-10T06:53:50.383Z,16.88
2023-05-10T06:56:17.720Z,17.01
2023-05-10T06:58:44.721Z,17.13
2023-05-10T07:01:11.995Z,17.31
2023-05-10T07:03:39.291Z,17.20
2023-05-10T07:06:11.331Z,17.17
2023-05-10T07:08:42.933Z,17.14
2023-05-10T07:11:10.052Z,17.21
2023-05-10T07:13:37.505Z,17.43
2023-05-10T07:16:05.333Z,17.51
2023-05-10T07:18:32.519Z,17.44
2023-05-10T07:20:59.609Z,17.28
2023-05-10T07:23:26.617Z,17.06
2023-05-10T07:25:54.401Z,16.92
2023-05-10T07:28:21.573Z,16.85
2023-05-10T07:30:49.079Z,16.90
2023-05-10T07:33:16.870Z,17.08
2023-05-10T07:35:44.568Z,17.27
2023-05-10T07:38:14.685Z,17.48
2023-05-10T07:40:41.732Z,17.59
2023-05-10T07:43:08.778Z,17.61
2023-05-10T07:45:35.957Z,17.62
2023-05-10T07:48:03.350Z,17.61
2023-05-10T07:50:30.602Z,17.61
2023-05-10T07:52:57.768Z,17.40
2023-05-10T07:55:24.929Z,17.15
2023-05-10T07:57:52.156Z,16.89
2023-05-10T08:00:20.950Z,16.74
2023-05-10T08:02:48.554Z,16.70
2023-05-10T08:05:16.427Z,16.70
2023-05-10T08:07:43.905Z,16.68
2023-05-10T08:10:12.352Z,16.63
2023-05-10T08:12:39.741Z,16.58
2023-05-10T08:15:08.080Z,16.52
2023-05-10T08:17:35.272Z,16.55
2023-05-10T08:20:02.524Z,16.63
2023-05-10T08:22:29.640Z,16.61
2023-05-10T08:24:56.835Z,16.62
2023-05-10T08:27:24.002Z,16.64
2023-05-10T08:29:51.124Z,16.69
2023-05-10T08:32:19.160Z,16.73
2023-05-10T08:34:46.350Z,16.89
2023-05-10T08:37:14.601Z,17.20
2023-05-10T08:39:42.148Z,17.52
2023-05-10T08:42:10.144Z,17.85
2023-05-10T08:44:38.042Z,18.18
2023-05-10T08:47:10.253Z,18.38
2023-05-10T08:49:38.791Z,18.38
2023-05-10T08:52:06.961Z,18.26
2023-05-10T08:54:35.999Z,18.11
2023-05-10T08:57:04.564Z,18.12
2023-05-10T08:59:31.946Z,18.23
2023-05-10T09:02:00.582Z,18.37
2023-05-10T09:04:30.617Z,18.38
2023-05-10T09:06:58.131Z,18.41
2023-05-10T09:09:26.332Z,18.47
2023-05-10T09:11:54.359Z,18.50
2023-05-10T09:14:21.515Z,18.71
2023-05-10T09:16:48.970Z,19.06
2023-05-10T09:19:16.335Z,19.26
2023-05-10T09:21:44.186Z,19.54
2023-05-10T09:24:11.490Z,19.81
2023-05-10T09:26:49.552Z,20.09
2023-05-10T09:29:17.679Z,20.09
2023-05-10T09:31:53.554Z,19.76
2023-05-10T09:34:31.849Z,19.35
2023-05-10T09:37:02.400Z,19.05
2023-05-10T09:39:38.426Z,19.01
2023-05-10T09:42:11.650Z,19.06
2023-05-10T09:44:39.389Z,18.99
2023-05-10T09:47:06.603Z,18.85
2023-05-10T09:49:34.328Z,18.75
2023-05-10T09:52:06.529Z,18.71
2023-05-10T09:54:35.167Z,18.81
2023-05-10T09:57:02.479Z,19.13
2023-05-10T09:59:30.553Z,19.64
2023-05-10T10:02:00.730Z,20.20
2023-05-10T10:04:28.488Z,20.57
2023-05-10T10:07:06.263Z,20.71
2023-05-10T10:09:35.026Z,20.66
2023-05-10T10:12:03.411Z,20.68
2023-05-10T10:14:31.146Z,20.89
2023-05-10T10:17:06.727Z,21.12
2023-05-10T10:19:38.291Z,21.31
2023-05-10T10:22:06.822Z,21.41
2023-05-10T10:24:34.406Z,21.41
2023-05-10T10:27:22.674Z,21.39
2023-05-10T10:30:17.694Z,21.21
2023-05-10T10:33:07.955Z,21.11
2023-05-10T10:35:46.868Z,21.22
2023-05-10T10:38:15.067Z,21.46
2023-05-10T10:40:42.084Z,21.55
2023-05-10T10:43:30.003Z,21.39
2023-05-10T10:46:26.524Z,20.98
2023-05-10T10:49:12.101Z,20.74
2023-05-10T10:51:40.222Z,20.80
2023-05-10T10:54:12.029Z,20.91
2023-05-10T10:56:39.340Z,20.93
2023-05-10T10:59:06.380Z,20.77
2023-05-10T11:01:36.849Z,20.61
2023-05-10T11:04:04.563Z,20.42
2023-05-10T11:06:37.071Z,20.21
2023-05-10T11:09:10.489Z,20.05
2023-05-10T11:11:49.380Z,19.97
2023-05-10T11:14:23.533Z,19.94
2023-05-10T11:16:52.490Z,20.03
2023-05-10T11:19:20.866Z,20.16
2023-05-10T11:22:05.858Z,20.35
2023-05-10T11:24:34.534Z,20.44
2023-05-10T11:27:02.078Z,20.49
2023-05-10T11:29:29.178Z,20.54
2023-05-10T11:32:00.238Z,20.72
2023-05-10T11:34:36.239Z,21.03
2023-05-10T11:37:03.409Z,21.51
2023-05-10T11:39:32.982Z,21.91
2023-05-10T11:42:00.531Z,22.25
2023-05-10T11:44:32.348Z,22.37
2023-05-10T11:47:03.332Z,22.46
2023-05-10T11:52:12.040Z,22.64
2023-05-10T11:54:39.197Z,22.76
2023-05-10T11:57:06.221Z,22.94
2023-05-10T11:59:33.318Z,23.05
2023-05-10T12:02:00.830Z,23.18
2023-05-10T12:04:30.492Z,23.37
2023-05-10T12:06:57.866Z,23.67
2023-05-10T12:09:39.597Z,23.92
2023-05-10T12:12:11.145Z,24.13
2023-05-10T12:14:38.268Z,24.30
2023-05-10T12:17:05.569Z,24.48
2023-05-10T12:19:40.273Z,24.68
2023-05-10T12:22:07.728Z,24.81
2023-05-10T12:24:39.847Z,24.70
2023-05-10T12:27:09.433Z,24.52
2023-05-10T12:29:36.990Z,24.23
2023-05-10T12:32:04.271Z,23.81
2023-05-10T12:34:39.647Z,23.46
2023-05-10T12:37:09.829Z,23.18
2023-05-10T12:39:45.178Z,23.01
2023-05-10T12:42:12.417Z,22.85
2023-05-10T12:44:41.162Z,22.69
2023-05-10T12:47:08.528Z,22.35
2023-05-10T12:49:36.044Z,22.00
2023-05-10T12:52:03.306Z,21.77
2023-05-10T12:54:30.445Z,21.53
2023-05-10T12:56:57.508Z,21.34
2023-05-10T12:59:26.218Z,21.03
2023-05-10T13:01:53.306Z,20.72
2023-05-10T13:04:20.892Z,20.58
2023-05-10T13:06:48.002Z,20.48
2023-05-10T13:09:15.091Z,20.40
2023-05-10T13:11:42.441Z,20.24
2023-05-10T13:14:09.553Z,20.08
2023-05-10T13:16:36.774Z,20.01
2023-05-10T13:19:04.040Z,19.91
2023-05-10T13:21:31.469Z,19.79
2023-05-10T13:23:58.936Z,19.64
2023-05-10T13:26:26.739Z,19.47
2023-05-10T13:28:53.722Z,19.25
2023-05-10T13:31:21.662Z,19.02
2023-05-10T13:33:48.734Z,18.82
2023-05-10T13:36:16.135Z,18.66
2023-05-10T13:38:43.256Z,18.47
2023-05-10T13:41:11.629Z,18.31
2023-05-10T13:43:40.196Z,18.11
2023-05-10T13:46:07.222Z,17.89
2023-05-10T13:48:35.237Z,17.52
2023-05-10T13:51:03.595Z,17.34
2023-05-10T13:53:30.809Z,17.24
2023-05-10T13:55:58.221Z,17.11
2023-05-10T13:58:25.441Z,17.00
2023-05-10T14:00:52.463Z,16.93
2023-05-10T14:03:19.638Z,16.89
2023-05-10T14:05:46.758Z,16.88
2023-05-10T14:08:15.347Z,16.91
2023-05-10T14:10:43.030Z,16.86
2023-05-10T14:13:10.046Z,16.81
2023-05-10T14:15:37.162Z,16.80
2023-05-10T14:18:04.323Z,16.81
2023-05-10T14:20:33.111Z,16.85
2023-05-10T14:23:00.833Z,16.87
2023-05-10T14:25:27.936Z,16.86
2023-05-10T14:27:55.791Z,16.95
2023-05-10T14:30:22.857Z,17.10
2023-05-10T14:32:50.086Z,17.34
2023-05-10T14:35:19.456Z,17.68
2023-05-10T14:37:47.018Z,17.91
2023-05-10T14:40:15.152Z,18.03
2023-05-10T14:42:44.114Z,18.06
2023-05-10T14:45:13.041Z,18.05
2023-05-10T14:47:40.111Z,18.00
2023-05-10T14:50:08.057Z,17.95
2023-05-10T14:52:35.115Z,17.85
2023-05-10T14:55:02.360Z,17.73
2023-05-10T14:57:30.661Z,17.59
2023-05-10T14:59:58.077Z,17.47
2023-05-10T15:02:25.666Z,17.37
2023-05-10T15:04:53.169Z,17.22
2023-05-10T15:07:20.771Z,17.11
2023-05-10T15:09:47.839Z,17.04
2023-05-10T15:12:14.906Z,16.94
2023-05-10T15:14:41.924Z,16.87
2023-05-10T15:17:09.002Z,16.84
2023-05-10T15:19:37.031Z,16.78
2023-05-10T15:22:06.286Z,16.70
2023-05-10T15:24:33.552Z,16.60
2023-05-10T15:27:01.121Z,16.53
2023-05-10T15:29:28.268Z,16.49
2023-05-10T15:31:55.337Z,16.46
2023-05-10T15:34:22.389Z,16.46
2023-05-10T15:36:49.517Z,16.46
2023-05-10T15:39:16.569Z,16.47
2023-05-10T15:41:46.022Z,16.49
2023-05-10T15:44:13.009Z,16.49
2023-05-10T15:46:40.133Z,16.45
2023-05-10T15:49:07.551Z,16.38
2023-05-10T15:51:36.526Z,16.28
2023-05-10T15:54:07.742Z,16.20
2023-05-10T15:56:35.314Z,16.16
2023-05-10T15:59:03.260Z,16.10
2023-05-10T16:01:31.331Z,16.02
2023-05-10T16:03:58.370Z,15.98
2023-05-10T16:06:25.411Z,15.97
2023-05-10T16:08:54.644Z,15.98
2023-05-10T16:11:22.110Z,15.95
2023-05-10T16:13:49.151Z,15.90
2023-05-10T16:16:16.438Z,15.90
2023-05-10T16:18:43.759Z,15.88
2023-05-10T16:21:11.018Z,15.87
2023-05-10T16:23:38.130Z,15.82
2023-05-10T16:26:05.124Z,15.80
2023-05-10T16:28:32.374Z,15.80
2023-05-10T16:30:59.459Z,15.76
2023-05-10T16:33:26.836Z,15.72
2023-05-10T16:35:53.798Z,15.68
2023-05-10T16:38:21.801Z,15.67
2023-05-10T16:40:48.876Z,15.75
2023-05-10T16:43:16.065Z,15.89
2023-05-10T16:45:43.132Z,16.01
2023-05-10T16:48:10.244Z,16.10
2023-05-10T16:50:37.338Z,16.15
2023-05-10T16:53:04.340Z,16.17
2023-05-10T16:55:32.565Z,16.19
2023-05-10T16:58:00.920Z,16.22
2023-05-10T17:00:27.979Z,16.24
2023-05-10T17:02:55.346Z,16.26
2023-05-10T17:05:23.228Z,16.23
2023-05-10T17:07:50.880Z,16.18
2023-05-10T17:10:18.076Z,16.16
2023-05-10T17:12:45.575Z,16.10
2023-05-10T17:15:13.595Z,16.06
2023-05-10T17:17:40.686Z,16.04
2023-05-10T17:20:09.174Z,15.99
2023-05-10T17:22:36.215Z,15.93
2023-05-10T17:25:04.178Z,15.89
2023-05-10T17:27:31.575Z,15.87
2023-05-10T17:29:58.866Z,15.87
2023-05-10T17:32:26.491Z,15.88
2023-05-10T17:34:53.582Z,15.83
2023-05-10T17:37:20.690Z,15.86
2023-05-10T17:39:47.708Z,15.88
2023-05-10T17:42:17.554Z,15.86
2023-05-10T17:44:44.586Z,15.84
2023-05-10T17:47:11.684Z,15.72
2023-05-10T17:49:39.865Z,15.61
2023-05-10T17:52:07.402Z,15.52
2023-05-10T17:54:34.511Z,15.46
2023-05-10T17:57:01.864Z,15.42
2023-05-10T17:59:28.936Z,15.38
2023-05-10T18:01:57.421Z,15.31
2023-05-10T18:04:24.509Z,15.29
2023-05-10T18:06:51.785Z,15.31
2023-05-10T18:09:21.166Z,15.26
2023-05-10T18:11:48.147Z,15.22
2023-05-10T18:14:20.579Z,15.21
2023-05-10T18:16:55.839Z,15.16
2023-05-10T18:19:25.013Z,15.10
2023-05-10T18:21:52.481Z,15.03
2023-05-10T18:24:34.219Z,14.99
2023-05-10T18:27:05.927Z,14.98
2023-05-10T18:29:33.351Z,14.98
2023-05-10T18:32:00.516Z,14.97
2023-05-10T18:34:27.876Z,14.97
2023-05-10T18:36:54.960Z,14.99
2023-05-10T18:39:21.979Z,15.02
2023-05-10T18:41:50.163Z,15.04
2023-05-10T18:44:18.801Z,15.00
2023-05-10T18:46:46.341Z,14.98
2023-05-10T18:49:13.601Z,14.97
2023-05-10T18:51:40.643Z,14.96
2023-05-10T18:54:07.712Z,14.91
2023-05-10T18:56:34.825Z,14.89
2023-05-10T18:59:01.905Z,14.88
2023-05-10T19:01:29.019Z,14.85
2023-05-10T19:03:56.121Z,14.83
2023-05-10T19:06:23.431Z,14.81
2023-05-10T19:08:50.877Z,14.80
2023-05-10T19:11:18.940Z,14.64
2023-05-10T19:13:46.418Z,14.62
2023-05-10T19:16:23.208Z,14.60
2023-05-10T19:18:51.268Z,14.58
2023-05-10T19:21:18.532Z,14.57
2023-05-10T19:23:46.267Z,14.59
2023-05-10T19:26:14.094Z,14.56
2023-05-10T19:28:42.075Z,14.53
2023-05-10T19:31:09.161Z,14.45
2023-05-10T19:33:38.331Z,14.42
2023-05-10T19:36:07.209Z,14.42
2023-05-10T19:38:34.758Z,14.41
2023-05-10T19:41:01.880Z,14.42
2023-05-10T19:43:34.327Z,14.39
2023-05-10T19:46:02.874Z,14.38
2023-05-10T19:48:30.945Z,14.40
2023-05-10T19:51:03.739Z,14.36
2023-05-10T19:53:32.169Z,14.41
2023-05-10T19:56:06.708Z,14.36
2023-05-10T19:58:34.476Z,14.36
2023-05-10T20:01:02.115Z,14.36
2023-05-10T20:03:29.395Z,14.37
2023-05-10T20:05:56.566Z,14.36
2023-05-10T20:08:23.527Z,14.36
2023-05-10T20:10:50.714Z,14.36
2023-05-10T20:13:17.965Z,14.33
2023-05-10T20:15:46.192Z,14.31
2023-05-10T20:18:13.264Z,14.30
2023-05-10T20:20:40.453Z,14.28
2023-05-10T20:23:07.587Z,14.25
2023-05-10T20:25:34.618Z,14.22
2023-05-10T20:28:03.632Z,14.20
2023-05-10T20:30:30.933Z,14.20
2023-05-10T20:32:58.008Z,14.18
2023-05-10T20:35:25.078Z,14.16
2023-05-10T20:37:52.080Z,14.16
2023-05-10T20:40:19.342Z,14.15
2023-05-10T20:42:47.597Z,14.13
2023-05-10T20:45:14.786Z,14.10
2023-05-10T20:47:41.963Z,14.08
2023-05-10T20:50:09.469Z,14.09
2023-05-10T20:52:36.483Z,14.06
2023-05-10T20:55:03.741Z,14.05
2023-05-10T20:57:30.850Z,14.04
2023-05-10T20:59:57.907Z,14.03
2023-05-10T21:02:24.910Z,14.05
2023-05-10T21:04:52.385Z,14.06
2023-05-10T21:07:19.457Z,14.05
2023-05-10T21:09:46.453Z,14.02
2023-05-10T21:12:13.590Z,13.99
2023-05-10T21:14:40.663Z,13.98
2023-05-10T21:17:07.672Z,13.97
2023-05-10T21:19:34.687Z,13.93
2023-05-10T21:22:02.143Z,13.92
2023-05-10T21:24:29.228Z,13.92
2023-05-10T21:26:56.247Z,13.94
2023-05-10T21:29:23.213Z,13.94
2023-05-10T21:31:51.210Z,13.94
2023-05-10T21:34:18.320Z,13.93
2023-05-10T21:36:45.384Z,13.94
2023-05-10T21:39:12.586Z,13.93
2023-05-10T21:41:39.568Z,13.93
2023-05-10T21:44:06.675Z,13.94
2023-05-10T21:46:33.678Z,13.95
2023-05-10T21:49:00.736Z,13.96
2023-05-10T21:51:29.175Z,13.96
2023-05-10T21:53:56.576Z,13.97
2023-05-10T21:56:23.616Z,14.00
2023-05-10T21:58:50.837Z,14.00
2023-05-10T22:01:18.074Z,14.01
2023-05-10T22:03:45.444Z,14.00
2023-05-10T22:06:12.990Z,13.99
2023-05-10T22:08:39.992Z,13.99
2023-05-10T22:11:07.013Z,13.98
2023-05-10T22:13:34.018Z,13.97
2023-05-10T22:16:01.465Z,13.98
2023-05-10T22:18:28.529Z,13.98
2023-05-10T22:20:55.596Z,14.02
2023-05-10T22:23:22.830Z,14.01
2023-05-10T22:25:49.796Z,13.98
2023-05-10T22:28:16.798Z,13.96
2023-05-10T22:30:44.172Z,13.97
2023-05-10T22:33:11.203Z,13.94
2023-05-10T22:35:38.133Z,13.91
2023-05-10T22:38:05.356Z,13.91
2023-05-10T22:40:32.692Z,13.89
2023-05-10T22:42:59.692Z,13.91
2023-05-10T22:45:27.190Z,13.90
2023-05-10T22:47:54.407Z,13.88
2023-05-10T22:50:21.748Z,13.88
2023-05-10T22:52:48.715Z,13.92
2023-05-10T22:55:15.782Z,13.96
2023-05-10T22:57:42.962Z,13.92
2023-05-10T23:00:10.757Z,13.91
2023-05-10T23:02:37.839Z,13.93
2023-05-10T23:05:05.770Z,13.91
2023-05-10T23:07:32.985Z,13.93
2023-05-10T23:09:59.978Z,13.93
2023-05-10T23:12:26.977Z,13.95
2023-05-10T23:14:54.985Z,13.96
2023-05-10T23:17:22.130Z,13.95
2023-05-10T23:19:49.071Z,13.96
2023-05-10T23:22:16.065Z,13.96
2023-05-10T23:24:43.177Z,13.94
2023-05-10T23:27:11.399Z,13.92
2023-05-10T23:29:38.425Z,13.91
2023-05-10T23:32:05.839Z,13.94
2023-05-10T23:34:32.928Z,13.93
2023-05-10T23:37:00.242Z,13.93
2023-05-10T23:39:27.248Z,13.94
2023-05-10T23:41:54.718Z,13.95
2023-05-10T23:44:21.946Z,13.94
2023-05-10T23:46:48.919Z,13.93
2023-05-10T23:49:17.328Z,13.94
2023-05-10T23:51:44.356Z,13.94
2023-05-10T23:54:11.361Z,13.94
2023-05-10T23:56:38.472Z,13.96
2023-05-10T23:59:06.598Z,13.98
